createdAt,value
2023-04-16T00:00:28.359Z,96050.53
2023-04-16T00:02:56.773Z,96047.19
2023-04-16T00:05:25.331Z,96053.38
2023-04-16T00:07:54.931Z,96054.94
2023-04-16T00:10:23.204Z,96060.25
2023-04-16T00:12:51.408Z,96055.19
2023-04-16T00:15:19.695Z,96055.31
2023-04-16T00:17:47.999Z,96064.63
2023-04-16T00:20:16.360Z,96066.44
2023-04-16T00:22:44.595Z,96061.03
2023-04-16T00:25:14.271Z,96064.81
2023-04-16T00:27:42.611Z,96063.88
2023-04-16T00:30:11.225Z,96065.63
2023-04-16T00:32:39.669Z,96062.44
2023-04-16T00:35:08.873Z,96053.97
2023-04-16T00:37:37.178Z,96060.97
2023-04-16T00:40:06.521Z,96057.13
2023-04-16T00:42:37.152Z,96063.03
2023-04-16T00:45:05.690Z,96064.81
2023-04-16T00:47:33.927Z,96067.56
2023-04-16T00:50:02.381Z,96063.34
2023-04-16T00:52:31.216Z,96059.72
2023-04-16T00:55:00.020Z,96056.84
2023-04-16T00:57:28.306Z,96066.38
2023-04-16T00:59:57.946Z,96067.47
2023-04-16T01:02:26.435Z,96063.44
2023-04-16T01:04:54.863Z,96065.44
2023-04-16T01:07:23.110Z,96058.91
2023-04-16T01:09:51.378Z,96062.81
2023-04-16T01:12:19.651Z,96058.63
2023-04-16T01:14:48.153Z,96063.06
2023-04-16T01:17:17.828Z,96059.97
2023-04-16T01:19:46.097Z,96060.53
2023-04-16T01:22:16.350Z,96062.50
2023-04-16T01:24:44.583Z,96060.25
2023-04-16T01:27:12.890Z,96071.38
2023-04-16T01:29:41.228Z,96074.81
2023-04-16T01:32:09.450Z,96077.06
2023-04-16T01:34:37.704Z,96082.38
2023-04-16T01:37:06.504Z,96080.00
2023-04-16T01:39:36.255Z,96086.22
2023-04-16T01:42:04.540Z,96081.81
2023-04-16T01:44:32.795Z,96083.81
2023-04-16T01:47:01.303Z,96082.31
2023-04-16T01:49:30.401Z,96081.44
2023-04-16T01:51:58.695Z,96083.50
2023-04-16T01:54:26.931Z,96078.22
2023-04-16T01:56:57.046Z,96080.78
2023-04-16T01:59:25.241Z,96079.59
2023-04-16T02:01:53.678Z,96077.56
2023-04-16T02:04:22.025Z,96078.72
2023-04-16T02:06:50.568Z,96075.94
2023-04-16T02:09:18.966Z,96078.72
2023-04-16T02:11:47.177Z,96083.41
2023-04-16T02:14:16.831Z,96078.91
2023-04-16T02:16:45.136Z,96087.88
2023-04-16T02:19:13.458Z,96082.50
2023-04-16T02:21:41.809Z,96084.13
2023-04-16T02:24:10.093Z,96076.16
2023-04-16T02:26:38.330Z,96080.28
2023-04-16T02:29:06.880Z,96077.72
2023-04-16T02:31:36.758Z,96082.72
2023-04-16T02:34:05.649Z,96089.81
2023-04-16T02:36:33.937Z,96086.94
2023-04-16T02:39:02.392Z,96087.63
2023-04-16T02:41:30.729Z,96090.81
2023-04-16T02:43:59.026Z,96096.34
2023-04-16T02:46:27.386Z,96098.22
2023-04-16T02:48:57.050Z,96094.94
2023-04-16T02:51:25.928Z,96105.50
2023-04-16T02:53:54.217Z,96103.41
2023-04-16T02:56:22.475Z,96104.47
2023-04-16T02:58:50.740Z,96102.66
2023-04-16T03:01:19.110Z,96101.25
2023-04-16T03:03:47.450Z,96104.47
2023-04-16T03:06:17.063Z,96101.00
2023-04-16T03:08:45.439Z,96095.84
2023-04-16T03:11:13.679Z,96094.31
2023-04-16T03:13:41.978Z,96098.41
2023-04-16T03:16:10.595Z,96105.38
2023-04-16T03:18:38.914Z,96102.84
2023-04-16T03:21:07.262Z,96110.16
2023-04-16T03:23:36.896Z,96108.56
2023-04-16T03:26:05.371Z,96111.44
2023-04-16T03:28:33.647Z,96110.50
2023-04-16T03:31:01.959Z,96112.19
2023-04-16T03:33:30.291Z,96116.41
2023-04-16T03:35:59.126Z,96117.78
2023-04-16T03:38:27.648Z,96123.00
2023-04-16T03:40:57.381Z,96119.78
2023-04-16T03:43:25.617Z,96118.28
2023-04-16T03:45:53.870Z,96119.94
2023-04-16T03:48:22.134Z,96115.94
2023-04-16T03:50:50.375Z,96125.63
2023-04-16T03:53:18.701Z,96116.50
2023-04-16T03:55:46.972Z,96126.03
2023-04-16T03:58:16.603Z,96124.59
2023-04-16T04:00:44.914Z,96125.66
2023-04-16T04:03:13.790Z,96132.91
2023-04-16T04:05:42.820Z,96130.66
2023-04-16T04:08:12.547Z,96134.41
2023-04-16T04:10:40.775Z,96148.69
2023-04-16T04:13:08.990Z,96138.34
2023-04-16T04:15:38.844Z,96141.47
2023-04-16T04:18:07.101Z,96140.00
2023-04-16T04:20:35.379Z,96145.31
2023-04-16T04:23:03.594Z,96145.56
2023-04-16T04:25:32.028Z,96145.16
2023-04-16T04:28:00.287Z,96147.63
2023-04-16T04:30:28.617Z,96139.75
2023-04-16T04:32:59.807Z,96150.84
2023-04-16T04:35:28.327Z,96149.22
2023-04-16T04:37:56.721Z,96148.50
2023-04-16T04:40:25.013Z,96163.41
2023-04-16T04:42:53.233Z,96150.09
2023-04-16T04:45:21.559Z,96158.06
2023-04-16T04:47:49.905Z,96163.09
2023-04-16T04:50:19.809Z,96151.84
2023-04-16T04:52:48.053Z,96162.66
2023-04-16T04:55:16.492Z,96162.75
2023-04-16T04:57:44.704Z,96165.72
2023-04-16T05:00:13.438Z,96159.19
2023-04-16T05:02:41.832Z,96164.78
2023-04-16T05:05:10.624Z,96162.97
2023-04-16T05:07:40.323Z,96162.63
2023-04-16T05:10:10.136Z,96170.97
2023-04-16T05:12:38.380Z,96181.03
2023-04-16T05:15:07.547Z,96176.47
2023-04-16T05:17:35.789Z,96187.88
2023-04-16T05:20:04.212Z,96189.38
2023-04-16T05:22:32.476Z,96187.09
2023-04-16T05:25:02.058Z,96192.28
2023-04-16T05:27:30.310Z,96195.44
2023-04-16T05:29:58.667Z,96202.16
2023-04-16T05:32:27.858Z,96201.22
2023-04-16T05:34:56.257Z,96207.88
2023-04-16T05:37:24.553Z,96200.41
2023-04-16T05:39:52.824Z,96204.09
2023-04-16T05:42:22.424Z,96196.91
2023-04-16T05:44:52.190Z,96214.09
2023-04-16T05:47:20.471Z,96202.69
2023-04-16T05:49:48.701Z,96201.56
2023-04-16T05:52:17.015Z,96204.47
2023-04-16T05:54:45.420Z,96215.47
2023-04-16T05:57:14.640Z,96206.66
2023-04-16T05:59:44.220Z,96211.78
2023-04-16T06:02:12.612Z,96216.00
2023-04-16T06:04:41.059Z,96217.69
2023-04-16T06:07:09.307Z,96217.59
2023-04-16T06:09:37.573Z,96218.50
2023-04-16T06:12:06.247Z,96220.31
2023-04-16T06:14:34.506Z,96216.09
2023-04-16T06:17:04.137Z,96223.78
2023-04-16T06:19:32.382Z,96227.78
2023-04-16T06:22:00.650Z,96221.69
2023-04-16T06:24:28.992Z,96221.47
2023-04-16T06:26:57.463Z,96229.88
2023-04-16T06:29:33.712Z,96232.69
2023-04-16T06:32:10.577Z,96232.81
2023-04-16T06:34:39.150Z,96241.06
2023-04-16T06:37:10.384Z,96238.25
2023-04-16T06:39:39.062Z,96241.63
2023-04-16T06:42:07.365Z,96247.53
2023-04-16T06:44:36.516Z,96232.75
2023-04-16T06:47:04.870Z,96243.25
2023-04-16T06:49:34.674Z,96241.03
2023-04-16T06:52:05.169Z,96245.09
2023-04-16T06:54:34.299Z,96245.00
2023-04-16T06:57:02.539Z,96247.72
2023-04-16T06:59:30.907Z,96254.00
2023-04-16T07:01:59.272Z,96249.00
2023-04-16T07:04:27.566Z,96253.03
2023-04-16T07:06:57.309Z,96255.06
2023-04-16T07:09:26.728Z,96250.47
2023-04-16T07:11:55.315Z,96246.59
2023-04-16T07:14:23.514Z,96240.59
2023-04-16T07:16:51.951Z,96247.28
2023-04-16T07:19:20.456Z,96252.84
2023-04-16T07:21:48.679Z,96244.69
2023-04-16T07:24:18.504Z,96250.69
2023-04-16T07:26:46.740Z,96246.59
2023-04-16T07:29:14.976Z,96249.69
2023-04-16T07:31:43.347Z,96246.94
2023-04-16T07:34:11.709Z,96245.91
2023-04-16T07:36:40.045Z,96244.94
2023-04-16T07:39:08.863Z,96250.47
2023-04-16T07:41:40.740Z,96242.53
2023-04-16T07:44:09.046Z,96249.22
2023-04-16T07:46:46.376Z,96255.09
2023-04-16T07:49:15.506Z,96261.16
2023-04-16T07:51:43.869Z,96261.53
2023-04-16T07:54:12.096Z,96262.31
2023-04-16T07:56:41.903Z,96257.06
2023-04-16T07:59:21.833Z,96273.50
2023-04-16T08:01:51.697Z,96268.38
2023-04-16T08:04:24.579Z,96274.22
2023-04-16T08:06:53.454Z,96272.75
2023-04-16T08:09:23.591Z,96266.44
2023-04-16T08:11:53.263Z,96268.00
2023-04-16T08:14:21.570Z,96271.28
2023-04-16T08:16:50.289Z,96275.81
2023-04-16T08:19:18.581Z,96280.16
2023-04-16T08:21:46.962Z,96283.13
2023-04-16T08:24:15.748Z,96274.94
2023-04-16T08:26:44.080Z,96282.59
2023-04-16T08:29:13.814Z,96281.38
2023-04-16T08:31:42.893Z,96282.13
2023-04-16T08:34:12.681Z,96286.56
2023-04-16T08:36:41.812Z,96286.19
2023-04-16T08:39:10.411Z,96277.66
2023-04-16T08:41:42.194Z,96285.06
2023-04-16T08:44:15.647Z,96288.31
2023-04-16T08:46:45.309Z,96293.28
2023-04-16T08:49:18.029Z,96289.78
2023-04-16T08:51:51.846Z,96299.28
2023-04-16T08:54:27.756Z,96302.63
2023-04-16T08:56:57.215Z,96301.47
2023-04-16T08:59:27.491Z,96299.34
2023-04-16T09:01:59.080Z,96304.22
2023-04-16T09:04:28.683Z,96293.44
2023-04-16T09:06:57.725Z,96307.09
2023-04-16T09:09:28.124Z,96307.81
2023-04-16T09:11:57.120Z,96307.50
2023-04-16T09:14:26.891Z,96314.59
2023-04-16T09:16:55.726Z,96312.44
2023-04-16T09:19:24.466Z,96315.53
2023-04-16T09:21:52.749Z,96320.72
2023-04-16T09:24:21.090Z,96321.53
2023-04-16T09:26:49.748Z,96321.31
2023-04-16T09:29:34.654Z,96320.13
2023-04-16T09:32:04.566Z,96325.25
2023-04-16T09:34:34.615Z,96319.22
2023-04-16T09:37:18.234Z,96318.59
2023-04-16T09:39:46.946Z,96320.41
2023-04-16T09:42:15.696Z,96318.91
2023-04-16T09:44:46.070Z,96314.84
2023-04-16T09:47:14.370Z,96322.56
2023-04-16T09:49:43.215Z,96312.44
2023-04-16T09:52:14.695Z,96317.16
2023-04-16T09:54:47.997Z,96320.81
2023-04-16T09:57:20.733Z,96325.81
2023-04-16T09:59:53.983Z,96324.19
2023-04-16T10:02:23.759Z,96328.88
2023-04-16T10:04:53.530Z,96327.19
2023-04-16T10:07:22.296Z,96332.06
2023-04-16T10:09:52.765Z,96325.28
2023-04-16T10:12:21.501Z,96333.59
2023-04-16T10:14:51.055Z,96319.47
2023-04-16T10:17:19.683Z,96321.47
2023-04-16T10:19:48.230Z,96331.66
2023-04-16T10:22:16.464Z,96324.50
2023-04-16T10:24:45.377Z,96325.81
2023-04-16T10:27:13.579Z,96327.50
2023-04-16T10:29:41.968Z,96328.13
2023-04-16T10:32:11.762Z,96329.00
2023-04-16T10:34:40.515Z,96330.31
2023-04-16T10:37:08.807Z,96333.41
2023-04-16T10:39:38.375Z,96330.09
2023-04-16T10:42:10.774Z,96333.16
2023-04-16T10:44:39.266Z,96333.06
2023-04-16T10:47:13.296Z,96330.00
2023-04-16T10:49:42.371Z,96320.19
2023-04-16T10:52:12.551Z,96324.75
2023-04-16T10:54:41.400Z,96338.31
2023-04-16T10:57:10.704Z,96331.78
2023-04-16T10:59:40.392Z,96339.88
2023-04-16T11:02:10.646Z,96322.97
2023-04-16T11:04:41.152Z,96331.78
2023-04-16T11:07:16.347Z,96345.72
2023-04-16T11:09:52.879Z,96333.34
2023-04-16T11:12:22.450Z,96334.56
2023-04-16T11:14:52.036Z,96341.84
2023-04-16T11:17:21.051Z,96340.34
2023-04-16T11:19:50.827Z,96351.66
2023-04-16T11:22:22.045Z,96348.59
2023-04-16T11:24:55.369Z,96348.94
2023-04-16T11:27:23.769Z,96345.00
2023-04-16T11:29:59.072Z,96349.06
2023-04-16T11:32:27.397Z,96355.81
2023-04-16T11:34:56.976Z,96348.06
2023-04-16T11:37:34.028Z,96344.59
2023-04-16T11:40:04.059Z,96350.13
2023-04-16T11:42:32.329Z,96348.66
2023-04-16T11:45:04.351Z,96362.41
2023-04-16T11:47:32.898Z,96354.72
2023-04-16T11:50:21.643Z,96360.44
2023-04-16T11:52:50.403Z,96354.59
2023-04-16T11:55:18.760Z,96355.84
2023-04-16T11:57:47.381Z,96359.75
2023-04-16T12:00:16.259Z,96371.53
2023-04-16T12:02:45.417Z,96377.84
2023-04-16T12:05:32.692Z,96364.22
2023-04-16T12:08:02.587Z,96363.59
2023-04-16T12:10:31.295Z,96366.63
2023-04-16T12:13:12.232Z,96357.69
2023-04-16T12:15:47.779Z,96361.59
2023-04-16T12:18:16.901Z,96363.38
2023-04-16T12:20:47.485Z,96364.50
2023-04-16T12:23:25.107Z,96368.78
2023-04-16T12:25:53.404Z,96361.41
2023-04-16T12:28:29.053Z,96363.19
2023-04-16T12:30:57.633Z,96363.31
2023-04-16T12:33:26.331Z,96364.69
2023-04-16T12:35:56.057Z,96366.44
2023-04-16T12:38:25.556Z,96355.09
2023-04-16T12:40:57.012Z,96356.09
2023-04-16T12:43:26.031Z,96364.00
2023-04-16T12:45:54.337Z,96362.03
2023-04-16T12:48:22.630Z,96359.41
2023-04-16T12:50:50.860Z,96367.41
2023-04-16T12:53:20.489Z,96365.63
2023-04-16T12:55:48.722Z,96366.56
2023-04-16T12:58:16.965Z,96369.88
2023-04-16T13:00:45.294Z,96367.63
2023-04-16T13:03:13.640Z,96353.63
2023-04-16T13:05:42.033Z,96366.78
2023-04-16T13:08:10.262Z,96355.44
2023-04-16T13:10:39.898Z,96355.22
2023-04-16T13:13:08.204Z,96357.06
2023-04-16T13:15:36.568Z,96352.25
2023-04-16T13:18:05.244Z,96360.59
2023-04-16T13:20:34.444Z,96340.66
2023-04-16T13:23:04.869Z,96352.34
2023-04-16T13:25:32.921Z,96347.13
2023-04-16T13:28:02.520Z,96352.06
2023-04-16T13:30:31.802Z,96358.94
2023-04-16T13:33:00.673Z,96360.81
2023-04-16T13:35:29.105Z,96357.78
2023-04-16T13:37:57.368Z,96356.69
2023-04-16T13:40:25.654Z,96354.09
2023-04-16T13:42:53.864Z,96357.69
2023-04-16T13:45:23.484Z,96358.13
2023-04-16T13:47:51.743Z,96368.25
2023-04-16T13:50:20.187Z,96371.69
2023-04-16T13:52:48.500Z,96377.47
2023-04-16T13:55:19.156Z,96375.53
2023-04-16T13:57:48.156Z,96387.19
2023-04-16T14:00:17.756Z,96379.13
2023-04-16T14:02:48.809Z,96375.19
2023-04-16T14:05:17.704Z,96374.88
2023-04-16T14:07:46.285Z,96375.44
2023-04-16T14:10:14.519Z,96376.63
2023-04-16T14:12:44.745Z,96372.56
2023-04-16T14:15:14.663Z,96385.13
2023-04-16T14:17:43.874Z,96376.59
2023-04-16T14:20:14.717Z,96377.84
2023-04-16T14:22:43.895Z,96374.50
2023-04-16T14:25:12.160Z,96385.16
2023-04-16T14:27:41.263Z,96382.19
2023-04-16T14:30:10.342Z,96383.66
2023-04-16T14:32:38.638Z,96385.53
2023-04-16T14:35:08.363Z,96378.75
2023-04-16T14:37:38.943Z,96376.13
2023-04-16T14:40:08.981Z,96379.81
2023-04-16T14:42:37.665Z,96384.72
2023-04-16T14:45:07.319Z,96393.06
2023-04-16T14:47:36.441Z,96385.53
2023-04-16T14:50:06.378Z,96384.59
2023-04-16T14:52:34.756Z,96393.03
2023-04-16T14:55:05.538Z,96387.78
2023-04-16T14:57:33.843Z,96382.31
2023-04-16T15:00:02.099Z,96385.88
2023-04-16T15:02:30.468Z,96387.47
2023-04-16T15:04:58.801Z,96391.00
2023-04-16T15:07:27.686Z,96392.31
2023-04-16T15:09:56.002Z,96392.72
2023-04-16T15:12:26.490Z,96397.25
2023-04-16T15:14:54.774Z,96387.84
2023-04-16T15:17:23.175Z,96404.06
2023-04-16T15:19:52.154Z,96386.03
2023-04-16T15:22:20.444Z,96385.84
2023-04-16T15:24:49.802Z,96391.78
2023-04-16T15:27:19.296Z,96390.25
2023-04-16T15:29:49.606Z,96391.53
2023-04-16T15:32:17.988Z,96389.13
2023-04-16T15:34:46.571Z,96381.78
2023-04-16T15:37:14.866Z,96387.28
2023-04-16T15:39:43.146Z,96390.72
2023-04-16T15:42:13.208Z,96396.03
2023-04-16T15:44:41.522Z,96395.38
2023-04-16T15:47:11.270Z,96402.50
2023-04-16T15:49:39.607Z,96392.69
2023-04-16T15:52:07.926Z,96400.81
2023-04-16T15:54:36.205Z,96394.94
2023-04-16T15:57:04.770Z,96409.16
2023-04-16T15:59:33.112Z,96403.03
2023-04-16T16:02:01.527Z,96405.22
2023-04-16T16:04:31.324Z,96409.97
2023-04-16T16:06:59.651Z,96408.91
2023-04-16T16:09:28.054Z,96407.25
2023-04-16T16:11:57.938Z,96409.78
2023-04-16T16:14:26.825Z,96407.16
2023-04-16T16:16:55.125Z,96416.38
2023-04-16T16:19:23.364Z,96411.69
2023-04-16T16:21:52.966Z,96409.03
2023-04-16T16:24:21.192Z,96402.38
2023-04-16T16:26:49.500Z,96400.28
2023-04-16T16:29:17.734Z,96402.63
2023-04-16T16:31:45.990Z,96406.38
2023-04-16T16:34:20.434Z,96418.28
2023-04-16T16:36:49.693Z,96410.84
2023-04-16T16:39:22.437Z,96418.41
2023-04-16T16:41:52.335Z,96415.34
2023-04-16T16:44:20.677Z,96415.22
2023-04-16T16:46:49.340Z,96421.41
2023-04-16T16:49:18.316Z,96419.75
2023-04-16T16:51:46.927Z,96429.06
2023-04-16T16:54:15.455Z,96421.19
2023-04-16T16:56:45.143Z,96424.59
2023-04-16T16:59:13.607Z,96426.22
2023-04-16T17:01:41.902Z,96431.38
2023-04-16T17:04:10.462Z,96427.81
2023-04-16T17:06:39.331Z,96431.09
2023-04-16T17:09:08.162Z,96436.16
2023-04-16T17:11:36.414Z,96435.81
2023-04-16T17:14:06.015Z,96440.56
2023-04-16T17:16:34.252Z,96443.91
2023-04-16T17:19:02.568Z,96449.00
2023-04-16T17:21:32.133Z,96455.13
2023-04-16T17:24:00.490Z,96456.94
2023-04-16T17:26:28.771Z,96463.28
2023-04-16T17:28:57.979Z,96459.97
2023-04-16T17:31:27.786Z,96459.66
2023-04-16T17:33:56.134Z,96468.72
2023-04-16T17:36:25.507Z,96466.75
2023-04-16T17:38:53.806Z,96463.16
2023-04-16T17:41:22.051Z,96462.78
2023-04-16T17:43:51.249Z,96463.94
2023-04-16T17:46:19.561Z,96478.16
2023-04-16T17:48:49.735Z,96487.31
2023-04-16T17:51:17.984Z,96480.31
2023-04-16T17:53:46.273Z,96481.75
2023-04-16T17:56:15.417Z,96488.31
2023-04-16T17:58:43.656Z,96486.47
2023-04-16T18:01:12.069Z,96486.91
2023-04-16T18:03:42.085Z,96492.47
2023-04-16T18:06:11.781Z,96490.63
2023-04-16T18:08:40.166Z,96486.50
2023-04-16T18:11:09.127Z,96499.31
2023-04-16T18:13:37.402Z,96497.22
2023-04-16T18:16:07.109Z,96503.81
2023-04-16T18:18:35.437Z,96498.88
2023-04-16T18:21:03.747Z,96507.34
2023-04-16T18:23:34.310Z,96508.56
2023-04-16T18:26:02.640Z,96504.81
2023-04-16T18:28:31.049Z,96511.59
2023-04-16T18:31:03.864Z,96507.44
2023-04-16T18:36:03.793Z,96514.47
2023-04-16T18:38:33.405Z,96517.94
2023-04-16T18:41:02.188Z,96521.41
2023-04-16T18:43:31.008Z,96521.19
2023-04-16T18:45:59.247Z,96525.28
2023-04-16T18:48:27.500Z,96528.75
2023-04-16T18:50:58.000Z,96530.59
2023-04-16T18:53:26.354Z,96531.16
2023-04-16T18:55:56.180Z,96539.78
2023-04-16T18:58:24.430Z,96543.50
2023-04-16T19:00:54.012Z,96543.50
2023-04-16T19:03:22.519Z,96549.16
2023-04-16T19:05:51.124Z,96552.19
2023-04-16T19:08:19.386Z,96547.91
2023-04-16T19:10:47.949Z,96551.28
2023-04-16T19:13:18.462Z,96554.91
2023-04-16T19:15:46.776Z,96558.63
2023-04-16T19:18:15.070Z,96548.91
2023-04-16T19:20:43.333Z,96552.97
2023-04-16T19:23:11.622Z,96553.13
2023-04-16T19:25:40.888Z,96551.53
2023-04-16T19:28:09.129Z,96551.53
2023-04-16T19:30:40.276Z,96545.25
2023-04-16T19:33:08.545Z,96547.28
2023-04-16T19:35:36.866Z,96541.16
2023-04-16T19:38:05.092Z,96541.69
2023-04-16T19:40:33.336Z,96543.53
2023-04-16T19:43:01.644Z,96551.03
2023-04-16T19:45:29.895Z,96550.13
2023-04-16T19:47:59.585Z,96558.34
2023-04-16T19:50:27.903Z,96559.53
2023-04-16T19:52:56.208Z,96553.69
2023-04-16T19:55:24.462Z,96562.03
2023-04-16T19:57:52.736Z,96561.38
2023-04-16T20:00:21.229Z,96555.44
2023-04-16T20:02:49.779Z,96553.97
2023-04-16T20:05:19.689Z,96560.13
2023-04-16T20:07:47.938Z,96562.19
2023-04-16T20:10:16.357Z,96562.91
2023-04-16T20:12:44.602Z,96573.00
2023-04-16T20:15:12.993Z,96560.56
2023-04-16T20:17:41.349Z,96565.56
2023-04-16T20:20:11.038Z,96562.72
2023-04-16T20:22:40.972Z,96560.94
2023-04-16T20:25:10.355Z,96561.69
2023-04-16T20:27:38.663Z,96561.53
2023-04-16T20:30:08.092Z,96556.66
2023-04-16T20:32:36.357Z,96565.56
2023-04-16T20:35:10.264Z,96570.81
2023-04-16T20:37:42.045Z,96570.97
2023-04-16T20:40:11.161Z,96576.41
2023-04-16T20:42:40.824Z,96567.44
2023-04-16T20:45:11.153Z,96568.53
2023-04-16T20:47:39.492Z,96565.38
2023-04-16T20:50:09.058Z,96571.38
2023-04-16T20:52:37.534Z,96567.31
2023-04-16T20:55:08.559Z,96560.44
2023-04-16T20:57:36.856Z,96561.91
2023-04-16T21:00:09.169Z,96563.72
2023-04-16T21:02:37.635Z,96558.47
2023-04-16T21:05:08.960Z,96566.56
2023-04-16T21:07:37.294Z,96573.00
2023-04-16T21:10:07.920Z,96575.31
2023-04-16T21:12:35.948Z,96565.78
2023-04-16T21:15:04.507Z,96561.81
2023-04-16T21:17:32.769Z,96563.53
2023-04-16T21:20:01.230Z,96559.91
2023-04-16T21:22:29.549Z,96561.59
2023-04-16T21:24:57.880Z,96571.69
2023-04-16T21:27:27.584Z,96572.66
2023-04-16T21:29:55.890Z,96573.91
2023-04-16T21:32:24.136Z,96577.97
2023-04-16T21:34:52.664Z,96579.19
2023-04-16T21:37:20.962Z,96577.84
2023-04-16T21:39:49.287Z,96567.25
2023-04-16T21:42:17.622Z,96576.59
2023-04-16T21:44:47.342Z,96567.09
2023-04-16T21:47:15.810Z,96572.50
2023-04-16T21:49:44.240Z,96577.59
2023-04-16T21:52:14.285Z,96569.19
2023-04-16T21:54:42.601Z,96575.38
2023-04-16T21:57:11.548Z,96568.28
2023-04-16T21:59:40.435Z,96572.75
2023-04-16T22:02:10.099Z,96574.97
2023-04-16T22:04:38.672Z,96570.22
2023-04-16T22:07:08.963Z,96566.94
2023-04-16T22:09:37.367Z,96559.59
2023-04-16T22:12:07.194Z,96564.91
2023-04-16T22:14:36.235Z,96563.81
2023-04-16T22:17:04.853Z,96569.50
2023-04-16T22:19:34.839Z,96558.47
2023-04-16T22:22:03.085Z,96568.59
2023-04-16T22:24:31.419Z,96570.44
2023-04-16T22:26:59.798Z,96565.84
2023-04-16T22:29:28.036Z,96556.84
2023-04-16T22:31:56.423Z,96559.72
2023-04-16T22:34:24.742Z,96558.69
2023-04-16T22:36:54.449Z,96551.97
2023-04-16T22:39:22.695Z,96554.72
2023-04-16T22:41:51.573Z,96547.38
2023-04-16T22:44:19.853Z,96553.72
2023-04-16T22:46:48.112Z,96548.50
2023-04-16T22:49:16.331Z,96549.50
2023-04-16T22:51:44.777Z,96551.25
2023-04-16T22:54:14.388Z,96556.38
2023-04-16T22:56:42.721Z,96549.13
2023-04-16T22:59:11.305Z,96569.06
2023-04-16T23:01:39.680Z,96562.16
2023-04-16T23:04:08.019Z,96553.25
2023-04-16T23:06:36.259Z,96553.06
2023-04-16T23:09:05.140Z,96551.31
2023-04-16T23:11:34.736Z,96542.28
2023-04-16T23:14:03.304Z,96555.09
2023-04-16T23:16:31.543Z,96556.56
2023-04-16T23:18:59.784Z,96553.97
2023-04-16T23:21:28.012Z,96560.97
2023-04-16T23:23:57.161Z,96555.53
2023-04-16T23:26:25.522Z,96558.78
2023-04-16T23:28:55.157Z,96549.09
2023-04-16T23:31:23.552Z,96552.69
2023-04-16T23:33:51.846Z,96552.31
2023-04-16T23:36:20.060Z,96549.47
2023-04-16T23:38:48.774Z,96552.69
2023-04-16T23:41:17.055Z,96549.38
2023-04-16T23:43:45.287Z,96548.47
2023-04-16T23:46:14.839Z,96548.47
2023-04-16T23:48:43.180Z,96553.06
2023-04-16T23:51:11.450Z,96557.66
2023-04-16T23:53:40.821Z,96548.38
2023-04-16T23:56:11.063Z,96556.75
2023-04-16T23:58:39.430Z,96552.13
